Time;durP1;ratioP1;P1;durP2;ratioP2;P2;SDS_P1;SDS_P2;PMS_P1;PMS_P2;Temp;Humidity;BMP_temperature;BMP_pressure;BME280_temperature;BME280_humidity;BME280_pressure;Samples;Min_cycle;Max_cycle;Signal;HPM_P1;HPM_P2
2022/02/16 00:00:46;;;;;;;;;;;;;;;9.64;69.83;99827.63;1751228;80;20140;-75
2022/02/16 00:03:12;;;;;;;;;;;;;;;9.44;70.52;99824.41;1752822;80;20163;-74
2022/02/16 00:05:39;;;;;;;;;;;;;;;9.55;70.17;99825.94;1755187;80;22622;-75
2022/02/16 00:08:05;;;;;;;;;;;;;;;9.61;70.18;99820.55;1744455;81;21061;-75
2022/02/16 00:10:31;;;;;;;;;;;;;;;9.60;70.22;99824.16;1707790;80;20138;-74
2022/02/16 00:12:56;;;;;;;;;;;;;;;9.62;70.05;99824.34;1747738;81;20869;-74
2022/02/16 00:15:26;;;;;;;;;;;;;;;9.59;70.32;99831.25;1750825;80;20198;-75
2022/02/16 00:17:52;;;;;;;;;;;;;;;9.56;70.33;99828.92;1750827;80;21135;-77
2022/02/16 00:20:17;;;;;;;;;;;;;;;9.66;69.92;99837.55;1744282;81;20213;-74
2022/02/16 00:22:43;;;;;;;;;;;;;;;9.57;70.17;99833.22;1752785;80;20191;-74
2022/02/16 00:25:09;;;;;;;;;;;;;;;9.72;69.73;99828.66;1759681;80;20174;-74
2022/02/16 00:27:34;;;;;;;;;;;;;;;9.80;69.47;99823.41;1754377;80;20245;-74
2022/02/16 00:30:00;;;;;;;;;;;;;;;9.85;69.24;99819.80;1751444;81;21040;-74
2022/02/16 00:32:26;;;;;;;;;;;;;;;9.71;69.48;99802.80;1754330;80;20132;-75
2022/02/16 00:34:51;;;;;;;;;;;;;;;9.81;69.43;99813.21;1748657;80;20289;-74
2022/02/16 00:37:17;;;;;;;;;;;;;;;9.88;69.13;99814.20;1778384;79;20128;-75
2022/02/16 00:39:42;;;;;;;;;;;;;;;9.65;69.74;99814.80;1749059;81;20190;-74
2022/02/16 00:42:08;;;;;;;;;;;;;;;9.81;69.45;99807.94;1761764;79;20989;-74
2022/02/16 00:44:33;;;;;;;;;;;;;;;9.80;69.39;99801.00;1761425;80;20191;-74
2022/02/16 00:47:00;;;;;;;;;;;;;;;9.83;69.18;99799.36;1765222;79;20206;-73
2022/02/16 00:49:28;;;;;;;;;;;;;;;9.84;69.25;99791.80;1754243;80;20217;-74
2022/02/16 00:51:53;;;;;;;;;;;;;;;9.75;69.59;99782.20;1747428;80;20182;-73
2022/02/16 00:54:19;;;;;;;;;;;;;;;9.87;69.16;99777.78;1759287;80;21641;-73
2022/02/16 00:56:44;;;;;;;;;;;;;;;9.95;68.85;99773.02;1761757;80;20469;-76
2022/02/16 00:59:10;;;;;;;;;;;;;;;9.97;68.75;99776.31;1761790;80;20181;-76
2022/02/16 01:01:36;;;;;;;;;;;;;;;9.87;69.05;99773.02;1763618;80;20180;-75
2022/02/16 01:04:02;;;;;;;;;;;;;;;9.76;69.49;99787.81;1760921;80;20191;-75
2022/02/16 01:06:28;;;;;;;;;;;;;;;9.61;69.99;99786.27;1759534;80;21335;-76
2022/02/16 01:08:53;;;;;;;;;;;;;;;9.63;70.11;99779.86;1764343;80;20142;-76
2022/02/16 01:11:21;;;;;;;;;;;;;;;9.63;69.85;99779.86;1757665;80;20549;-76
2022/02/16 01:13:47;;;;;;;;;;;;;;;9.65;69.79;99780.52;1763230;80;20144;-76
2022/02/16 01:16:12;;;;;;;;;;;;;;;9.57;70.02;99775.23;1760758;79;20162;-78
2022/02/16 01:18:38;;;;;;;;;;;;;;;9.47;70.35;99766.61;1763914;79;21056;-79
2022/02/16 01:21:03;;;;;;;;;;;;;;;9.50;70.33;99762.34;1769339;80;20597;-76
2022/02/16 01:23:29;;;;;;;;;;;;;;;9.50;70.47;99757.06;1758872;80;20151;-76
2022/02/16 01:25:54;;;;;;;;;;;;;;;9.54;70.17;99759.73;1760644;80;20125;-77
2022/02/16 01:28:21;;;;;;;;;;;;;;;9.56;69.96;99761.70;1755532;79;20151;-76
2022/02/16 01:30:47;;;;;;;;;;;;;;;9.60;69.87;99755.14;1762427;80;22019;-76
2022/02/16 01:33:12;;;;;;;;;;;;;;;9.70;69.50;99743.13;1767181;80;20237;-76
2022/02/16 01:35:38;;;;;;;;;;;;;;;9.63;69.51;99742.95;1751678;80;20246;-76
2022/02/16 01:38:04;;;;;;;;;;;;;;;9.69;69.38;99736.20;1752449;80;21088;-78
2022/02/16 01:40:29;;;;;;;;;;;;;;;9.65;69.46;99732.25;1758411;80;20168;-77
2022/02/16 01:42:55;;;;;;;;;;;;;;;9.54;69.85;99736.00;1761840;80;21082;-76
2022/02/16 01:45:27;;;;;;;;;;;;;;;9.37;70.47;99732.95;1757051;80;20239;-76
2022/02/16 01:47:54;;;;;;;;;;;;;;;9.45;70.16;99732.50;1756898;80;20133;-76
2022/02/16 01:50:19;;;;;;;;;;;;;;;9.40;70.41;99728.69;1761932;80;20169;-76
2022/02/16 01:52:45;;;;;;;;;;;;;;;9.37;70.47;99731.63;1760610;79;20530;-78
2022/02/16 01:55:11;;;;;;;;;;;;;;;9.17;71.13;99725.31;1757037;80;21174;-77
2022/02/16 01:57:38;;;;;;;;;;;;;;;9.25;70.78;99720.06;1759308;80;20164;-76
2022/02/16 02:00:05;;;;;;;;;;;;;;;9.29;70.62;99725.37;1757452;80;20133;-78
2022/02/16 02:02:30;;;;;;;;;;;;;;;9.16;70.99;99721.83;1763917;80;20312;-76
2022/02/16 02:04:56;;;;;;;;;;;;;;;9.23;70.65;99718.09;1764091;80;20233;-76
2022/02/16 02:07:21;;;;;;;;;;;;;;;9.31;70.35;99718.13;1762153;80;21153;-78
2022/02/16 02:09:48;;;;;;;;;;;;;;;9.18;70.63;99712.45;1763347;80;20346;-74
2022/02/16 02:12:14;;;;;;;;;;;;;;;8.98;71.14;99706.13;1763477;80;20632;-72
2022/02/16 02:14:42;;;;;;;;;;;;;;;9.09;70.83;99705.49;1769572;79;20143;-79
2022/02/16 02:17:08;;;;;;;;;;;;;;;9.03;70.97;99708.79;1777169;80;20167;-76
2022/02/16 02:19:33;;;;;;;;;;;;;;;8.96;71.18;99709.41;1775152;79;20694;-77
2022/02/16 02:22:01;;;;;;;;;;;;;;;8.80;71.77;99716.70;1768642;80;20139;-73
2022/02/16 02:24:29;;;;;;;;;;;;;;;8.77;71.75;99708.30;1769608;80;20132;-77
2022/02/16 02:26:56;;;;;;;;;;;;;;;8.80;71.67;99706.17;1770843;80;20191;-78
2022/02/16 02:29:22;;;;;;;;;;;;;;;8.82;71.55;99699.44;1786963;78;20178;-74
2022/02/16 02:31:49;;;;;;;;;;;;;;;8.81;71.59;99697.80;1784486;78;21095;-74
2022/02/16 02:34:15;;;;;;;;;;;;;;;8.36;73.17;99688.24;1790430;78;20177;-77
2022/02/16 02:36:41;;;;;;;;;;;;;;;8.53;72.81;99686.11;1758077;80;20139;-77
2022/02/16 02:39:06;;;;;;;;;;;;;;;8.43;72.93;99684.03;1771917;80;20600;-75
2022/02/16 02:41:32;;;;;;;;;;;;;;;8.38;73.34;99678.41;1747835;80;20218;-74
2022/02/16 02:43:58;;;;;;;;;;;;;;;8.42;73.16;99673.16;1752673;80;21154;-75
2022/02/16 02:46:24;;;;;;;;;;;;;;;8.40;73.56;99684.34;1785919;79;20158;-74
2022/02/16 02:48:50;;;;;;;;;;;;;;;8.17;74.10;99682.21;1785284;78;20209;-75
2022/02/16 02:51:17;;;;;;;;;;;;;;;8.27;73.76;99673.72;1785615;80;20486;-76
2022/02/16 02:53:44;;;;;;;;;;;;;;;8.25;73.65;99673.56;1784641;78;20154;-74
2022/02/16 02:56:11;;;;;;;;;;;;;;;8.29;73.74;99671.44;1755647;81;21127;-74
2022/02/16 02:58:36;;;;;;;;;;;;;;;8.31;73.51;99666.84;1766313;80;21185;-74
2022/02/16 03:01:03;;;;;;;;;;;;;;;8.25;73.58;99665.17;1775192;80;21021;-76
2022/02/16 03:03:32;;;;;;;;;;;;;;;8.32;73.48;99657.98;1745486;80;20204;-77
2022/02/16 03:05:58;;;;;;;;;;;;;;;8.18;73.84;99670.69;1750260;80;20247;-77
2022/02/16 03:08:25;;;;;;;;;;;;;;;8.19;73.85;99664.96;1787085;78;21160;-76
2022/02/16 03:10:51;;;;;;;;;;;;;;;8.40;73.04;99664.60;1789973;78;20336;-75
2022/02/16 03:13:19;;;;;;;;;;;;;;;8.30;73.40;99663.86;1785700;78;20118;-75
2022/02/16 03:15:48;;;;;;;;;;;;;;;8.26;73.40;99656.31;1756779;80;20594;-74
2022/02/16 03:18:14;;;;;;;;;;;;;;;8.17;73.58;99649.34;1789294;80;20882;-74
2022/02/16 03:20:40;;;;;;;;;;;;;;;8.23;73.47;99649.19;1754394;80;21149;-75
2022/02/16 03:23:05;;;;;;;;;;;;;;;8.06;73.97;99650.87;1771319;79;20201;-75
2022/02/16 03:25:31;;;;;;;;;;;;;;;8.14;73.66;99653.58;1765408;80;20128;-74
2022/02/16 03:27:56;;;;;;;;;;;;;;;8.24;73.40;99646.41;1761140;79;20448;-74
2022/02/16 03:30:22;;;;;;;;;;;;;;;8.06;74.20;99646.92;1763246;79;20185;-74
2022/02/16 03:32:48;;;;;;;;;;;;;;;7.93;74.55;99647.81;1767921;79;21186;-75
2022/02/16 03:35:14;;;;;;;;;;;;;;;7.87;74.80;99642.17;1755039;79;20173;-76
2022/02/16 03:37:39;;;;;;;;;;;;;;;8.03;74.20;99633.61;1763347;79;20328;-76
2022/02/16 03:40:06;;;;;;;;;;;;;;;8.03;74.00;99630.98;1761199;79;20565;-78
2022/02/16 03:42:33;;;;;;;;;;;;;;;8.05;74.24;99629.02;1758905;79;20222;-77
2022/02/16 03:44:59;;;;;;;;;;;;;;;7.98;74.36;99623.20;1762317;80;21129;-75
2022/02/16 03:47:24;;;;;;;;;;;;;;;7.91;74.71;99625.13;1765835;79;20158;-75
2022/02/16 03:49:50;;;;;;;;;;;;;;;7.76;75.28;99626.64;1762484;80;20205;-74
2022/02/16 03:52:15;;;;;;;;;;;;;;;7.84;74.83;99633.27;1762493;79;20598;-73
2022/02/16 03:54:41;;;;;;;;;;;;;;;7.79;75.04;99636.03;1762516;80;20191;-77
2022/02/16 03:57:06;;;;;;;;;;;;;;;7.89;74.63;99631.03;1759757;79;21083;-75
2022/02/16 03:59:32;;;;;;;;;;;;;;;7.87;74.63;99629.02;1763900;79;20141;-76
2022/02/16 04:02:02;;;;;;;;;;;;;;;7.94;74.40;99629.73;1759004;79;20145;-76
2022/02/16 04:04:25;;;;;;;;;;;;;;;7.81;74.81;99627.00;1759466;79;20963;-77
2022/02/16 04:06:50;;;;;;;;;;;;;;;7.92;74.32;99631.20;1769029;79;20195;-75
2022/02/16 04:09:16;;;;;;;;;;;;;;;7.95;74.19;99622.19;1766029;79;22247;-75
2022/02/16 04:11:42;;;;;;;;;;;;;;;8.00;74.02;99623.87;1762870;79;20161;-75
2022/02/16 04:14:07;;;;;;;;;;;;;;;7.99;73.85;99619.61;1761740;80;20501;-75
2022/02/16 04:16:33;;;;;;;;;;;;;;;7.90;74.13;99619.52;1764069;79;20409;-77
2022/02/16 04:18:59;;;;;;;;;;;;;;;7.87;74.27;99634.78;1757012;79;20933;-75
2022/02/16 04:21:25;;;;;;;;;;;;;;;7.88;74.31;99635.94;1759049;80;21079;-75
2022/02/16 04:23:51;;;;;;;;;;;;;;;7.86;74.32;99628.70;1760135;79;20221;-75
2022/02/16 04:26:16;;;;;;;;;;;;;;;7.85;74.26;99623.60;1760395;79;20167;-75
2022/02/16 04:28:42;;;;;;;;;;;;;;;7.74;74.52;99625.97;1754780;80;20118;-75
2022/02/16 04:31:07;;;;;;;;;;;;;;;7.77;74.28;99620.41;1760873;79;21335;-75
2022/02/16 04:33:33;;;;;;;;;;;;;;;7.88;74.03;99617.55;1764918;79;21157;-75
2022/02/16 04:35:59;;;;;;;;;;;;;;;7.94;73.72;99617.90;1752543;79;20838;-75
2022/02/16 04:38:24;;;;;;;;;;;;;;;7.86;73.90;99619.50;1779981;79;20151;-74
2022/02/16 04:40:50;;;;;;;;;;;;;;;7.95;73.47;99609.86;1736546;82;20452;-78
2022/02/16 04:43:16;;;;;;;;;;;;;;;7.90;73.52;99611.63;1740502;82;20142;-78
2022/02/16 04:45:41;;;;;;;;;;;;;;;7.85;73.61;99598.13;1778024;79;21061;-75
2022/02/16 04:48:07;;;;;;;;;;;;;;;7.83;73.61;99590.05;1761050;79;20165;-75
2022/02/16 04:50:34;;;;;;;;;;;;;;;7.51;74.69;99596.19;1764811;80;20129;-75
2022/02/16 04:53:00;;;;;;;;;;;;;;;7.66;74.34;99591.71;1761898;80;20994;-74
2022/02/16 04:55:26;;;;;;;;;;;;;;;7.64;74.36;99596.30;1762479;79;20172;-74
2022/02/16 04:57:52;;;;;;;;;;;;;;;7.64;74.38;99589.23;1756380;79;21140;-75
2022/02/16 05:00:18;;;;;;;;;;;;;;;7.65;74.22;99584.83;1766902;80;20443;-75
2022/02/16 05:02:43;;;;;;;;;;;;;;;7.72;74.09;99580.59;1762576;79;20134;-75
2022/02/16 05:05:09;;;;;;;;;;;;;;;7.76;73.90;99588.53;1762009;79;20144;-77
2022/02/16 05:07:35;;;;;;;;;;;;;;;7.69;73.96;99571.23;1764021;79;20160;-75
2022/02/16 05:10:01;;;;;;;;;;;;;;;7.77;73.98;99569.16;1763490;79;21109;-75
2022/02/16 05:12:26;;;;;;;;;;;;;;;7.51;74.60;99572.55;1759121;79;20277;-77
2022/02/16 05:14:52;;;;;;;;;;;;;;;7.44;75.08;99569.36;1758512;80;20144;-75
2022/02/16 05:17:17;;;;;;;;;;;;;;;7.47;74.99;99571.22;1761153;80;20508;-76
2022/02/16 05:19:43;;;;;;;;;;;;;;;7.53;74.89;99567.95;1759015;80;20185;-75
2022/02/16 05:22:09;;;;;;;;;;;;;;;7.55;74.59;99562.08;1757695;80;21192;-75
2022/02/16 05:24:35;;;;;;;;;;;;;;;7.46;74.87;99570.05;1752948;80;20602;-75
2022/02/16 05:27:00;;;;;;;;;;;;;;;7.44;74.99;99562.32;1759067;80;20211;-76
2022/02/16 05:29:26;;;;;;;;;;;;;;;7.32;75.37;99566.96;1720440;81;20173;-77
2022/02/16 05:31:52;;;;;;;;;;;;;;;7.25;75.73;99562.45;1727349;81;20191;-75
2022/02/16 05:34:17;;;;;;;;;;;;;;;7.23;75.80;99556.53;1757381;80;21108;-74
2022/02/16 05:36:45;;;;;;;;;;;;;;;7.20;75.91;99557.65;1753456;80;20433;-75
2022/02/16 05:39:10;;;;;;;;;;;;;;;7.42;75.41;99556.38;1752208;80;20518;-78
2022/02/16 05:41:36;;;;;;;;;;;;;;;7.14;75.81;99547.23;1730504;80;20120;-74
2022/02/16 05:44:01;;;;;;;;;;;;;;;7.22;75.77;99550.44;1760734;80;20245;-75
2022/02/16 05:46:27;;;;;;;;;;;;;;;7.19;75.83;99546.33;1725744;81;21073;-76
2022/02/16 05:48:53;;;;;;;;;;;;;;;7.09;76.31;99546.88;1737237;82;20158;-75
2022/02/16 05:51:18;;;;;;;;;;;;;;;7.13;76.13;99544.30;1732358;82;20175;-76
2022/02/16 05:53:44;;;;;;;;;;;;;;;7.05;76.71;99544.69;1762729;79;20115;-76
2022/02/16 05:56:10;;;;;;;;;;;;;;;7.07;76.30;99543.58;1759032;80;20156;-76
2022/02/16 05:58:35;;;;;;;;;;;;;;;6.89;77.05;99536.98;1756435;80;21126;-76
2022/02/16 06:01:01;;;;;;;;;;;;;;;7.01;76.76;99533.67;1753871;80;20489;-76
2022/02/16 06:03:26;;;;;;;;;;;;;;;7.07;76.60;99541.42;1750843;80;20766;-76
2022/02/16 06:05:52;;;;;;;;;;;;;;;7.01;76.62;99539.73;1726163;81;20110;-76
2022/02/16 06:08:18;;;;;;;;;;;;;;;6.91;77.00;99536.83;1730248;81;20193;-78
2022/02/16 06:10:44;;;;;;;;;;;;;;;6.90;77.08;99543.05;1762605;80;21198;-77
2022/02/16 06:13:09;;;;;;;;;;;;;;;6.98;76.81;99538.72;1755055;80;20505;-77
2022/02/16 06:15:35;;;;;;;;;;;;;;;7.04;76.71;99542.56;1762497;80;20186;-79
2022/02/16 06:18:00;;;;;;;;;;;;;;;6.89;77.10;99536.98;1778582;79;20557;-78
2022/02/16 06:20:26;;;;;;;;;;;;;;;;;;1756583;80;20165;-79
2022/02/16 06:22:53;;;;;;;;;;;;;;;6.91;77.15;99528.95;1762060;79;20233;-76
2022/02/16 06:25:19;;;;;;;;;;;;;;;6.92;77.24;99531.93;1764065;80;20146;-76
2022/02/16 06:27:44;;;;;;;;;;;;;;;6.96;77.16;99527.55;1755505;79;21118;-78
2022/02/16 06:30:10;;;;;;;;;;;;;;;6.99;77.10;99532.97;1758917;79;20147;-81
2022/02/16 06:32:36;;;;;;;;;;;;;;;6.75;77.89;99531.73;1761659;79;20216;-75
2022/02/16 06:35:02;;;;;;;;;;;;;;;6.75;77.98;99530.42;1769627;79;21134;-76
2022/02/16 06:37:27;;;;;;;;;;;;;;;6.80;77.87;99521.62;1764682;79;21010;-75
2022/02/16 06:39:53;;;;;;;;;;;;;;;6.76;78.05;99526.84;1762476;79;20164;-77
2022/02/16 06:42:18;;;;;;;;;;;;;;;6.67;78.37;99530.34;1763587;79;20467;-75
2022/02/16 06:44:44;;;;;;;;;;;;;;;6.76;78.19;99526.84;1766317;79;20176;-76
2022/02/16 06:47:10;;;;;;;;;;;;;;;6.95;77.64;99523.77;1761986;79;21186;-78
2022/02/16 06:49:35;;;;;;;;;;;;;;;7.08;77.25;99522.89;1769561;79;21205;-76
2022/02/16 06:52:01;;;;;;;;;;;;;;;7.06;77.03;99525.34;1751450;80;20210;-76
2022/02/16 06:54:27;;;;;;;;;;;;;;;7.19;76.78;99522.70;1762150;80;20180;-79
2022/02/16 06:56:53;;;;;;;;;;;;;;;7.10;76.90;99518.34;1758822;80;20261;-77
2022/02/16 06:59:18;;;;;;;;;;;;;;;7.22;76.74;99516.30;1765918;79;21148;-77
2022/02/16 07:01:44;;;;;;;;;;;;;;;7.30;76.50;99512.92;1760435;79;20165;-77
2022/02/16 07:04:09;;;;;;;;;;;;;;;7.40;76.16;99513.67;1760892;79;20505;-77
2022/02/16 07:06:35;;;;;;;;;;;;;;;7.45;76.08;99506.16;1761283;79;20161;-76
2022/02/16 07:09:01;;;;;;;;;;;;;;;7.47;75.98;99501.59;1760688;79;20150;-75
2022/02/16 07:11:26;;;;;;;;;;;;;;;7.35;76.40;99506.25;1758306;80;21101;-75
2022/02/16 07:13:52;;;;;;;;;;;;;;;7.57;75.95;99500.66;1761232;79;20274;-76
2022/02/16 07:16:17;;;;;;;;;;;;;;;7.77;75.24;99494.25;1756735;79;20143;-75
2022/02/16 07:18:43;;;;;;;;;;;;;;;7.84;74.92;99495.77;1756200;80;20142;-77
2022/02/16 07:21:11;;;;;;;;;;;;;;;7.61;75.35;99487.05;1753294;80;20195;-77
2022/02/16 07:23:37;;;;;;;;;;;;;;;7.81;74.82;99492.13;1758835;80;20683;-78
2022/02/16 07:26:03;;;;;;;;;;;;;;;7.84;74.77;99484.75;1759100;80;20158;-77
2022/02/16 07:28:29;;;;;;;;;;;;;;;7.97;74.42;99471.68;1756135;80;20136;-76
2022/02/16 07:30:56;;;;;;;;;;;;;;;7.86;74.52;99477.55;1763553;80;20574;-76
2022/02/16 07:33:22;;;;;;;;;;;;;;;7.89;74.65;99472.45;1761961;80;20194;-76
2022/02/16 07:35:47;;;;;;;;;;;;;;;7.90;74.53;99474.93;1762838;80;21056;-76
2022/02/16 07:38:13;;;;;;;;;;;;;;;7.95;74.40;99467.08;1763245;80;20218;-75
2022/02/16 07:40:39;;;;;;;;;;;;;;;8.00;74.25;99464.33;1761258;80;20163;-75
2022/02/16 07:43:04;;;;;;;;;;;;;;;8.00;74.27;99456.91;1755582;80;20568;-75
2022/02/16 07:45:30;;;;;;;;;;;;;;;8.00;74.04;99463.01;1752610;80;20116;-77
2022/02/16 07:47:56;;;;;;;;;;;;;;;8.06;73.79;99464.17;1752914;80;21085;-75
2022/02/16 07:50:22;;;;;;;;;;;;;;;8.06;73.71;99472.06;1758277;80;20411;-75
2022/02/16 07:52:47;;;;;;;;;;;;;;;8.13;73.62;99475.72;1757588;80;20304;-77
2022/02/16 07:55:13;;;;;;;;;;;;;;;8.22;73.39;99462.94;1761026;80;20177;-76
2022/02/16 07:57:39;;;;;;;;;;;;;;;8.30;72.87;99459.99;1764486;80;20459;-76
2022/02/16 08:00:05;;;;;;;;;;;;;;;8.37;72.74;99461.02;1760992;80;21240;-77
2022/02/16 08:02:31;;;;;;;;;;;;;;;8.50;72.41;99456.17;1755858;80;20299;-77
2022/02/16 08:04:56;;;;;;;;;;;;;;;8.29;72.50;99453.10;1759603;80;20179;-77
2022/02/16 08:07:22;;;;;;;;;;;;;;;8.55;71.93;99449.93;1753985;80;20169;-77
2022/02/16 08:09:48;;;;;;;;;;;;;;;8.44;72.14;99447.60;1751726;80;20149;-75
2022/02/16 08:12:14;;;;;;;;;;;;;;;8.80;71.55;99447.35;1749833;80;21885;-77
2022/02/16 08:14:40;;;;;;;;;;;;;;;8.75;71.37;99452.30;1750277;80;20246;-77
2022/02/16 08:17:05;;;;;;;;;;;;;;;8.84;71.04;99450.00;1757877;79;20141;-80
2022/02/16 08:19:31;;;;;;;;;;;;;;;9.03;70.60;99449.38;1763992;80;20268;-75
2022/02/16 08:21:58;;;;;;;;;;;;;;;9.24;70.16;99445.73;1759780;80;20243;-81
2022/02/16 08:24:25;;;;;;;;;;;;;;;9.11;69.80;99440.15;1760632;79;21193;-76
2022/02/16 08:26:54;;;;;;;;;;;;;;;9.18;69.58;99441.12;1758616;79;20526;-76
2022/02/16 08:29:24;;;;;;;;;;;;;;;9.20;69.39;99436.53;1768934;80;20139;-79
2022/02/16 08:31:49;;;;;;;;;;;;;;;9.15;68.93;99432.23;1760097;79;20171;-80
2022/02/16 08:34:14;;;;;;;;;;;;;;;9.39;68.67;99424.00;1764711;80;20153;-77
2022/02/16 08:36:40;;;;;;;;;;;;;;;9.33;68.30;99414.44;1755481;79;21157;-77
2022/02/16 08:39:05;;;;;;;;;;;;;;;9.45;67.93;99419.39;1760331;79;20483;-78
2022/02/16 08:41:31;;;;;;;;;;;;;;;9.39;67.27;99417.42;1757908;79;20175;-78
2022/02/16 08:43:56;;;;;;;;;;;;;;;9.60;66.62;99409.81;1763774;79;20127;-75
2022/02/16 08:46:22;;;;;;;;;;;;;;;9.50;65.80;99415.75;1761185;80;21094;-76
2022/02/16 08:48:47;;;;;;;;;;;;;;;9.49;65.32;99402.23;1759640;79;21965;-78
2022/02/16 08:51:13;;;;;;;;;;;;;;;9.55;64.55;99412.11;1764674;79;20189;-75
2022/02/16 08:53:39;;;;;;;;;;;;;;;9.85;64.04;99387.30;1762207;79;20167;-76
2022/02/16 08:56:04;;;;;;;;;;;;;;;9.85;63.49;99375.44;1766263;80;20131;-78
2022/02/16 08:58:30;;;;;;;;;;;;;;;9.58;62.91;99388.05;1766493;80;20695;-77
2022/02/16 09:00:56;;;;;;;;;;;;;;;9.99;62.43;99369.94;1764717;80;21038;-78
2022/02/16 09:03:22;;;;;;;;;;;;;;;10.21;61.85;99371.83;1767206;79;20277;-77
2022/02/16 09:05:47;;;;;;;;;;;;;;;10.20;61.14;99374.64;1740513;80;20206;-78
2022/02/16 09:08:13;;;;;;;;;;;;;;;10.41;60.83;99361.69;1764416;79;20166;-77
2022/02/16 09:10:38;;;;;;;;;;;;;;;10.08;61.74;99365.47;1755027;80;20298;-78
2022/02/16 09:13:04;;;;;;;;;;;;;;;10.18;61.01;99355.02;1757490;79;21167;-77
2022/02/16 09:15:30;;;;;;;;;;;;;;;10.33;60.91;99348.55;1768203;79;20886;-79
2022/02/16 09:17:56;;;;;;;;;;;;;;;10.73;60.03;99341.31;1755471;80;20154;-77
2022/02/16 09:20:22;;;;;;;;;;;;;;;10.71;59.67;99340.69;1761606;80;20214;-80
2022/02/16 09:22:47;;;;;;;;;;;;;;;10.91;59.56;99348.13;1750441;80;20284;-82
2022/02/16 09:25:13;;;;;;;;;;;;;;;10.41;59.72;99319.45;1767655;80;21257;-82
2022/02/16 09:27:38;;;;;;;;;;;;;;;10.74;59.86;99327.64;1764716;80;20227;-77
2022/02/16 09:30:05;;;;;;;;;;;;;;;10.59;59.64;99331.53;1751678;80;20205;-77
2022/02/16 09:32:31;;;;;;;;;;;;;;;10.67;59.78;99338.06;1759418;80;20233;-78
2022/02/16 09:34:57;;;;;;;;;;;;;;;10.63;59.04;99322.27;1759200;80;20732;-78
2022/02/16 09:37:23;;;;;;;;;;;;;;;10.59;59.12;99337.63;1751564;80;21189;-78
2022/02/16 09:39:48;;;;;;;;;;;;;;;10.59;58.32;99339.45;1765098;80;20280;-78
2022/02/16 09:42:14;;;;;;;;;;;;;;;10.53;58.12;99358.64;1755187;80;20174;-77
2022/02/16 09:44:58;;;;;;;;;;;;;;;10.37;58.26;99333.98;1755619;80;20624;-78
2022/02/16 09:47:24;;;;;;;;;;;;;;;10.55;57.75;99336.36;1750439;80;20119;-77
2022/02/16 09:49:50;;;;;;;;;;;;;;;10.37;57.59;99320.80;1762399;80;21078;-77
2022/02/16 09:52:16;;;;;;;;;;;;;;;10.60;56.93;99320.80;1749149;80;20750;-81
2022/02/16 09:54:41;;;;;;;;;;;;;;;10.37;56.81;99300.19;1756757;80;20166;-78
2022/02/16 09:57:07;;;;;;;;;;;;;;;10.15;57.29;99309.20;1751471;80;20472;-77
2022/02/16 09:59:34;;;;;;;;;;;;;;;10.45;56.46;99292.71;1745863;80;20240;-78
2022/02/16 10:02:05;;;;;;;;;;;;;;;10.43;56.19;99294.20;1747172;80;21199;-77
2022/02/16 10:04:32;;;;;;;;;;;;;;;10.77;55.72;99295.08;1749086;80;20157;-81
2022/02/16 10:06:57;;;;;;;;;;;;;;;10.82;55.06;99277.37;1753574;80;20197;-77
2022/02/16 10:09:28;;;;;;;;;;;;;;;10.82;54.86;99272.61;1724887;81;20168;-76
2022/02/16 10:11:57;;;;;;;;;;;;;;;11.10;54.06;99254.33;1719103;81;20178;-76
2022/02/16 10:14:26;;;;;;;;;;;;;;;11.05;53.49;99256.70;1736781;81;21161;-78
2022/02/16 10:16:51;;;;;;;;;;;;;;;10.89;53.71;99273.52;1734494;81;20200;-78
2022/02/16 10:19:17;;;;;;;;;;;;;;;10.96;53.53;99258.59;1737901;81;20158;-78
2022/02/16 10:22:02;;;;;;;;;;;;;;;11.00;53.56;99251.12;1736528;81;20325;-78
2022/02/16 10:24:28;;;;;;;;;;;;;;;11.13;53.74;99238.92;1734628;81;20130;-80
2022/02/16 10:26:56;;;;;;;;;;;;;;;10.72;54.02;99252.55;1739900;81;20647;-76
2022/02/16 10:29:24;;;;;;;;;;;;;;;11.04;53.78;99234.72;1736693;81;20207;-75
2022/02/16 10:31:51;;;;;;;;;;;;;;;11.07;53.01;99226.95;1711524;81;33121;-78
2022/02/16 10:34:17;;;;;;;;;;;;;;;11.28;52.93;99222.26;1742511;81;20507;-77
2022/02/16 10:36:46;;;;;;;;;;;;;;;11.38;52.45;99209.56;1736772;80;20303;-77
2022/02/16 10:39:12;;;;;;;;;;;;;;;11.57;51.98;99207.34;1747511;80;20504;-77
2022/02/16 10:41:47;;;;;;;;;;;;;;;11.30;51.68;99199.09;1739918;81;20194;-76
2022/02/16 10:44:33;;;;;;;;;;;;;;;11.19;51.96;99191.64;1733943;81;20147;-77
2022/02/16 10:47:00;;;;;;;;;;;;;;;11.48;51.56;99188.95;1737239;81;20194;-76
2022/02/16 10:49:26;;;;;;;;;;;;;;;11.58;50.82;99190.48;1730472;81;20179;-77
2022/02/16 10:52:08;;;;;;;;;;;;;;;11.71;50.03;99181.34;1732486;81;21412;-78
2022/02/16 10:54:34;;;;;;;;;;;;;;;11.60;49.42;99189.27;1738993;81;20188;-77
2022/02/16 10:57:00;;;;;;;;;;;;;;;11.91;48.99;99167.52;1732133;80;20279;-78
2022/02/16 10:59:25;;;;;;;;;;;;;;;11.63;49.48;99166.94;1733905;81;20492;-79
2022/02/16 11:01:51;;;;;;;;;;;;;;;11.88;49.29;99163.92;1729935;81;20205;-75
2022/02/16 11:04:16;;;;;;;;;;;;;;;12.27;48.84;99150.75;1737970;81;21007;-77
2022/02/16 11:06:43;;;;;;;;;;;;;;;12.21;48.60;99158.95;1733094;81;20241;-78
2022/02/16 11:09:21;;;;;;;;;;;;;;;12.26;48.36;99141.17;1741361;81;20658;-78
2022/02/16 11:11:48;;;;;;;;;;;;;;;12.21;47.99;99143.91;1732455;81;20577;-78
2022/02/16 11:14:13;;;;;;;;;;;;;;;11.96;48.25;99130.27;1723091;81;20603;-79
2022/02/16 11:16:41;;;;;;;;;;;;;;;12.15;48.44;99116.87;1740570;81;21149;-79
2022/02/16 11:19:24;;;;;;;;;;;;;;;12.38;48.00;99114.48;1779089;80;20190;-78
2022/02/16 11:22:00;;;;;;;;;;;;;;;12.46;47.99;99123.62;1754172;80;20151;-80
2022/02/16 11:24:31;;;;;;;;;;;;;;;12.38;47.79;99114.48;1745088;81;20222;-75
2022/02/16 11:26:57;;;;;;;;;;;;;;;12.69;47.70;99103.97;1746819;82;20317;-75
2022/02/16 11:29:31;;;;;;;;;;;;;;;12.57;47.56;99101.88;1778672;79;21068;-79
2022/02/16 11:32:04;;;;;;;;;;;;;;;12.69;47.15;99085.43;1781342;79;20100;-76
2022/02/16 11:34:29;;;;;;;;;;;;;;;12.79;46.72;99083.25;1728801;82;20214;-80
2022/02/16 11:36:58;;;;;;;;;;;;;;;12.64;46.78;99087.86;1736317;80;20163;-78
2022/02/16 11:39:43;;;;;;;;;;;;;;;12.67;46.75;99078.20;1753570;81;20159;-77
2022/02/16 11:42:10;;;;;;;;;;;;;;;12.56;46.50;99067.12;1702238;82;21135;-78
2022/02/16 11:44:52;;;;;;;;;;;;;;;12.67;46.45;99059.66;1752981;80;20157;-78
2022/02/16 11:47:39;;;;;;;;;;;;;;;12.72;46.61;99065.17;1780385;80;20173;-76
2022/02/16 11:50:12;;;;;;;;;;;;;;;13.02;45.89;99064.39;1780764;79;21156;-76
2022/02/16 11:52:56;;;;;;;;;;;;;;;13.03;46.21;99053.27;1779191;79;21017;-78
2022/02/16 11:55:27;;;;;;;;;;;;;;;12.99;45.90;99049.38;1754785;80;21128;-77
2022/02/16 11:57:54;;;;;;;;;;;;;;;13.15;45.71;99046.38;1747536;80;20138;-78
2022/02/16 12:00:35;;;;;;;;;;;;;;;13.51;45.50;99047.09;1746330;80;20146;-79
2022/02/16 12:03:05;;;;;;;;;;;;;;;13.31;45.73;99043.05;1746816;80;20132;-80
2022/02/16 12:05:53;;;;;;;;;;;;;;;13.35;45.48;99029.73;1782889;79;20116;-80
2022/02/16 12:08:22;;;;;;;;;;;;;;;13.54;45.52;99016.18;1747723;81;20132;-80
2022/02/16 12:10:51;;;;;;;;;;;;;;;13.73;45.32;99009.23;1745846;80;20114;-80
2022/02/16 12:13:29;;;;;;;;;;;;;;;13.60;45.15;99000.78;1759600;81;20169;-79
2022/02/16 12:15:58;;;;;;;;;;;;;;;13.42;45.43;99008.00;1780539;79;20128;-78
2022/02/16 12:18:24;;;;;;;;;;;;;;;13.36;45.60;99001.69;1781381;79;21007;-79
2022/02/16 12:20:49;;;;;;;;;;;;;;;13.23;45.57;98990.51;1746814;79;21190;-80
2022/02/16 12:23:15;;;;;;;;;;;;;;;13.41;45.51;98986.50;1767840;80;20158;-79
2022/02/16 12:25:40;;;;;;;;;;;;;;;12.89;45.83;98983.52;1763740;79;20494;-79
2022/02/16 12:28:06;;;;;;;;;;;;;;;12.84;46.11;98981.47;1762769;79;20112;-80
2022/02/16 12:30:40;;;;;;;;;;;;;;;13.23;45.56;98997.13;1752166;79;20217;-78
2022/02/16 12:33:20;;;;;;;;;;;;;;;13.33;45.78;98966.76;1746878;79;22058;-79
2022/02/16 12:35:46;;;;;;;;;;;;;;;12.89;46.21;98977.70;1758718;79;20137;-78
2022/02/16 12:38:12;;;;;;;;;;;;;;;13.38;45.84;98958.54;1754788;80;20204;-80
2022/02/16 12:40:38;;;;;;;;;;;;;;;13.76;45.53;98957.09;1763345;79;20600;-78
2022/02/16 12:43:10;;;;;;;;;;;;;;;13.72;45.73;98949.22;1756172;80;20166;-79
2022/02/16 12:45:36;;;;;;;;;;;;;;;14.05;45.44;98938.55;1757914;80;21083;-79
2022/02/16 12:48:01;;;;;;;;;;;;;;;14.21;45.32;98938.59;1765154;80;20167;-78
2022/02/16 12:50:28;;;;;;;;;;;;;;;14.28;45.13;98926.13;1764951;79;20213;-79
2022/02/16 12:52:58;;;;;;;;;;;;;;;14.36;45.18;98923.22;1754869;80;20217;-79